sensor_id;sensor_type;location;lat;lon;timestamp;temperature;humidity
32811;DHT22;65470;47.324;8.548;2023-04-01T00:00:52;10.20;99.90
32811;DHT22;65470;47.324;8.548;2023-04-01T00:03:19;10.30;99.90
32811;DHT22;65470;47.324;8.548;2023-04-01T00:05:46;10.30;99.90
32811;DHT22;65470;47.324;8.548;2023-04-01T00:08:11;10.30;99.90
32811;DHT22;65470;47.324;8.548;2023-04-01T00:10:37;10.30;99.90
32811;DHT22;65470;47.324;8.548;2023-04-01T00:13:03;10.30;99.90
32811;DHT22;65470;47.324;8.548;2023-04-01T00:15:28;10.30;99.90
32811;DHT22;65470;47.324;8.548;2023-04-01T00:17:54;10.30;99.90
32811;DHT22;65470;47.324;8.548;2023-04-01T00:20:20;10.40;99.90
32811;DHT22;65470;47.324;8.548;2023-04-01T00:22:46;10.30;99.90
32811;DHT22;65470;47.324;8.548;2023-04-01T00:25:12;10.30;99.90
32811;DHT22;65470;47.324;8.548;2023-04-01T00:27:38;10.20;99.90
32811;DHT22;65470;47.324;8.548;2023-04-01T00:30:04;10.20;99.90
32811;DHT22;65470;47.324;8.548;2023-04-01T00:32:30;10.20;99.90
32811;DHT22;65470;47.324;8.548;2023-04-01T00:34:56;10.20;99.90
32811;DHT22;65470;47.324;8.548;2023-04-01T00:37:24;10.20;99.90
32811;DHT22;65470;47.324;8.548;2023-04-01T00:39:50;10.20;99.90
32811;DHT22;65470;47.324;8.548;2023-04-01T00:42:15;10.10;99.90
32811;DHT22;65470;47.324;8.548;2023-04-01T00:44:42;10.20;99.90
32811;DHT22;65470;47.324;8.548;2023-04-01T00:47:09;10.20;99.90
32811;DHT22;65470;47.324;8.548;2023-04-01T00:49:41;10.20;99.90
32811;DHT22;65470;47.324;8.548;2023-04-01T00:52:12;10.30;99.90
32811;DHT22;65470;47.324;8.548;2023-04-01T00:54:38;10.20;99.90
32811;DHT22;65470;47.324;8.548;2023-04-01T00:57:22;10.20;99.90
32811;DHT22;65470;47.324;8.548;2023-04-01T00:59:52;10.10;99.90
32811;DHT22;65470;47.324;8.548;2023-04-01T01:02:20;10.10;99.90
32811;DHT22;65470;47.324;8.548;2023-04-01T01:04:45;10.10;99.90
32811;DHT22;65470;47.324;8.548;2023-04-01T01:15:30;10.00;99.90
32811;DHT22;65470;47.324;8.548;2023-04-01T01:21:13;10.00;99.90
32811;DHT22;65470;47.324;8.548;2023-04-01T01:24:06;9.90;99.90
32811;DHT22;65470;47.324;8.548;2023-04-01T01:37:41;9.90;99.90
32811;DHT22;65470;47.324;8.548;2023-04-01T01:40:09;10.00;99.90
32811;DHT22;65470;47.324;8.548;2023-04-01T01:42:40;10.00;99.90
32811;DHT22;65470;47.324;8.548;2023-04-01T01:45:10;10.00;99.90
32811;DHT22;65470;47.324;8.548;2023-04-01T01:47:37;10.10;99.90
32811;DHT22;65470;47.324;8.548;2023-04-01T01:50:04;10.10;99.90
32811;DHT22;65470;47.324;8.548;2023-04-01T01:52:30;10.10;99.90
32811;DHT22;65470;47.324;8.548;2023-04-01T01:54:57;10.10;99.90
32811;DHT22;65470;47.324;8.548;2023-04-01T01:57:28;10.10;99.90
32811;DHT22;65470;47.324;8.548;2023-04-01T01:59:58;10.10;99.90
32811;DHT22;65470;47.324;8.548;2023-04-01T02:03:03;10.10;99.90
32811;DHT22;65470;47.324;8.548;2023-04-01T02:05:51;10.10;99.90
32811;DHT22;65470;47.324;8.548;2023-04-01T02:08:31;10.10;99.90
32811;DHT22;65470;47.324;8.548;2023-04-01T02:11:10;10.00;99.90
32811;DHT22;65470;47.324;8.548;2023-04-01T02:16:22;10.00;99.90
32811;DHT22;65470;47.324;8.548;2023-04-01T02:18:51;10.10;99.90
32811;DHT22;65470;47.324;8.548;2023-04-01T02:21:20;10.10;99.90
32811;DHT22;65470;47.324;8.548;2023-04-01T02:23:47;10.20;99.90
32811;DHT22;65470;47.324;8.548;2023-04-01T02:26:14;10.20;99.90
32811;DHT22;65470;47.324;8.548;2023-04-01T02:28:40;10.20;99.90
32811;DHT22;65470;47.324;8.548;2023-04-01T02:31:10;10.20;99.90
32811;DHT22;65470;47.324;8.548;2023-04-01T02:33:37;10.20;99.90
32811;DHT22;65470;47.324;8.548;2023-04-01T02:36:04;10.20;99.90
32811;DHT22;65470;47.324;8.548;2023-04-01T02:38:30;10.10;99.90
32811;DHT22;65470;47.324;8.548;2023-04-01T02:40:59;10.20;99.90
32811;DHT22;65470;47.324;8.548;2023-04-01T02:43:24;10.20;99.90
32811;DHT22;65470;47.324;8.548;2023-04-01T02:45:50;10.30;99.90
32811;DHT22;65470;47.324;8.548;2023-04-01T02:48:16;10.30;99.90
32811;DHT22;65470;47.324;8.548;2023-04-01T02:50:41;10.30;99.90
32811;DHT22;65470;47.324;8.548;2023-04-01T02:53:07;10.20;99.90
32811;DHT22;65470;47.324;8.548;2023-04-01T02:55:33;10.10;99.90
32811;DHT22;65470;47.324;8.548;2023-04-01T02:57:59;10.20;99.90
32811;DHT22;65470;47.324;8.548;2023-04-01T03:00:26;10.20;99.90
32811;DHT22;65470;47.324;8.548;2023-04-01T03:02:52;10.30;99.90
32811;DHT22;65470;47.324;8.548;2023-04-01T03:05:18;10.30;99.90
32811;DHT22;65470;47.324;8.548;2023-04-01T03:07:43;10.20;99.90
32811;DHT22;65470;47.324;8.548;2023-04-01T03:10:09;10.30;99.90
32811;DHT22;65470;47.324;8.548;2023-04-01T03:12:35;10.30;99.90
32811;DHT22;65470;47.324;8.548;2023-04-01T03:15:01;10.30;99.90
32811;DHT22;65470;47.324;8.548;2023-04-01T03:17:27;10.20;99.90
32811;DHT22;65470;47.324;8.548;2023-04-01T03:19:52;10.30;99.90
32811;DHT22;65470;47.324;8.548;2023-04-01T03:22:18;10.20;99.90
32811;DHT22;65470;47.324;8.548;2023-04-01T03:24:47;10.20;99.90
32811;DHT22;65470;47.324;8.548;2023-04-01T03:27:13;10.20;99.90
32811;DHT22;65470;47.324;8.548;2023-04-01T03:29:39;10.20;99.90
32811;DHT22;65470;47.324;8.548;2023-04-01T03:32:05;10.20;99.90
32811;DHT22;65470;47.324;8.548;2023-04-01T03:34:30;10.20;99.90
32811;DHT22;65470;47.324;8.548;2023-04-01T03:36:56;10.10;99.90
32811;DHT22;65470;47.324;8.548;2023-04-01T03:39:22;10.10;99.90
32811;DHT22;65470;47.324;8.548;2023-04-01T03:41:48;10.10;99.90
32811;DHT22;65470;47.324;8.548;2023-04-01T03:44:14;10.10;99.90
32811;DHT22;65470;47.324;8.548;2023-04-01T03:46:39;10.10;99.90
32811;DHT22;65470;47.324;8.548;2023-04-01T03:49:09;10.10;99.90
32811;DHT22;65470;47.324;8.548;2023-04-01T03:51:40;10.10;99.90
32811;DHT22;65470;47.324;8.548;2023-04-01T03:54:06;10.10;99.90
32811;DHT22;65470;47.324;8.548;2023-04-01T03:56:32;10.10;99.90
32811;DHT22;65470;47.324;8.548;2023-04-01T03:58:58;10.20;99.90
32811;DHT22;65470;47.324;8.548;2023-04-01T04:01:24;10.20;99.90
32811;DHT22;65470;47.324;8.548;2023-04-01T04:03:50;10.20;99.90
32811;DHT22;65470;47.324;8.548;2023-04-01T04:06:18;10.20;99.90
32811;DHT22;65470;47.324;8.548;2023-04-01T04:08:44;10.20;99.90
32811;DHT22;65470;47.324;8.548;2023-04-01T04:11:10;10.20;99.90
32811;DHT22;65470;47.324;8.548;2023-04-01T04:13:36;10.20;99.90
32811;DHT22;65470;47.324;8.548;2023-04-01T04:16:03;10.20;99.90
32811;DHT22;65470;47.324;8.548;2023-04-01T04:18:29;10.20;99.90
32811;DHT22;65470;47.324;8.548;2023-04-01T04:20:55;10.20;99.90
32811;DHT22;65470;47.324;8.548;2023-04-01T04:23:21;10.20;99.90
32811;DHT22;65470;47.324;8.548;2023-04-01T04:25:58;10.30;99.90
32811;DHT22;65470;47.324;8.548;2023-04-01T04:28:26;10.30;99.90
32811;DHT22;65470;47.324;8.548;2023-04-01T04:30:52;10.30;99.90
32811;DHT22;65470;47.324;8.548;2023-04-01T04:33:18;10.30;99.90
32811;DHT22;65470;47.324;8.548;2023-04-01T04:35:44;10.30;99.90
32811;DHT22;65470;47.324;8.548;2023-04-01T04:38:10;10.40;99.90
32811;DHT22;65470;47.324;8.548;2023-04-01T04:40:37;10.40;99.90
32811;DHT22;65470;47.324;8.548;2023-04-01T04:43:03;10.40;99.90
32811;DHT22;65470;47.324;8.548;2023-04-01T04:45:29;10.40;99.90
32811;DHT22;65470;47.324;8.548;2023-04-01T04:47:55;10.20;99.90
32811;DHT22;65470;47.324;8.548;2023-04-01T04:50:21;10.10;99.90
32811;DHT22;65470;47.324;8.548;2023-04-01T04:52:47;10.00;99.90
32811;DHT22;65470;47.324;8.548;2023-04-01T04:55:13;9.90;99.90
32811;DHT22;65470;47.324;8.548;2023-04-01T04:57:40;9.80;99.90
32811;DHT22;65470;47.324;8.548;2023-04-01T05:00:06;9.70;99.90
32811;DHT22;65470;47.324;8.548;2023-04-01T05:02:33;9.70;99.90
32811;DHT22;65470;47.324;8.548;2023-04-01T05:04:59;9.60;99.90
32811;DHT22;65470;47.324;8.548;2023-04-01T05:07:24;9.60;99.90
32811;DHT22;65470;47.324;8.548;2023-04-01T05:09:50;9.60;99.90
32811;DHT22;65470;47.324;8.548;2023-04-01T05:12:16;9.60;99.90
32811;DHT22;65470;47.324;8.548;2023-04-01T05:14:41;9.50;99.90
32811;DHT22;65470;47.324;8.548;2023-04-01T05:17:11;9.50;99.90
32811;DHT22;65470;47.324;8.548;2023-04-01T05:19:37;9.40;99.90
32811;DHT22;65470;47.324;8.548;2023-04-01T05:22:03;9.30;99.90
32811;DHT22;65470;47.324;8.548;2023-04-01T05:24:30;9.40;99.90
32811;DHT22;65470;47.324;8.548;2023-04-01T05:26:56;9.40;99.90
32811;DHT22;65470;47.324;8.548;2023-04-01T05:29:23;9.50;99.90
32811;DHT22;65470;47.324;8.548;2023-04-01T05:31:49;9.40;99.90
32811;DHT22;65470;47.324;8.548;2023-04-01T05:34:15;9.40;99.90
32811;DHT22;65470;47.324;8.548;2023-04-01T05:36:41;9.50;99.90
32811;DHT22;65470;47.324;8.548;2023-04-01T05:39:07;9.50;99.90
32811;DHT22;65470;47.324;8.548;2023-04-01T05:41:37;9.60;99.90
32811;DHT22;65470;47.324;8.548;2023-04-01T05:44:04;9.60;99.90
32811;DHT22;65470;47.324;8.548;2023-04-01T05:46:30;9.70;99.90
32811;DHT22;65470;47.324;8.548;2023-04-01T05:48:55;9.80;99.90
32811;DHT22;65470;47.324;8.548;2023-04-01T05:51:21;9.80;99.90
32811;DHT22;65470;47.324;8.548;2023-04-01T05:53:46;9.90;99.90
32811;DHT22;65470;47.324;8.548;2023-04-01T05:56:12;9.80;99.90
32811;DHT22;65470;47.324;8.548;2023-04-01T05:58:38;9.80;99.90
32811;DHT22;65470;47.324;8.548;2023-04-01T06:01:10;9.80;99.90
32811;DHT22;65470;47.324;8.548;2023-04-01T06:03:36;9.90;99.90
32811;DHT22;65470;47.324;8.548;2023-04-01T06:06:02;10.00;99.90
32811;DHT22;65470;47.324;8.548;2023-04-01T06:08:31;10.20;99.90
32811;DHT22;65470;47.324;8.548;2023-04-01T06:17:13;10.40;99.90
32811;DHT22;65470;47.324;8.548;2023-04-01T06:20:08;10.40;99.90
32811;DHT22;65470;47.324;8.548;2023-04-01T06:33:05;12.60;99.90
32811;DHT22;65470;47.324;8.548;2023-04-01T06:54:21;12.30;99.90
32811;DHT22;65470;47.324;8.548;2023-04-01T06:56:57;12.30;99.90
32811;DHT22;65470;47.324;8.548;2023-04-01T06:59:28;12.50;99.90
32811;DHT22;65470;47.324;8.548;2023-04-01T07:02:01;12.40;99.90
32811;DHT22;65470;47.324;8.548;2023-04-01T07:04:33;12.50;99.90
32811;DHT22;65470;47.324;8.548;2023-04-01T07:07:04;12.60;99.90
32811;DHT22;65470;47.324;8.548;2023-04-01T07:09:39;12.60;99.90
32811;DHT22;65470;47.324;8.548;2023-04-01T07:14:59;12.50;99.90
32811;DHT22;65470;47.324;8.548;2023-04-01T07:17:32;12.40;99.90
32811;DHT22;65470;47.324;8.548;2023-04-01T07:20:05;12.20;99.90
32811;DHT22;65470;47.324;8.548;2023-04-01T07:22:40;11.90;99.90
32811;DHT22;65470;47.324;8.548;2023-04-01T07:25:14;11.80;99.90
32811;DHT22;65470;47.324;8.548;2023-04-01T07:27:44;11.60;99.90
32811;DHT22;65470;47.324;8.548;2023-04-01T07:30:18;11.30;99.90
32811;DHT22;65470;47.324;8.548;2023-04-01T07:56:11;11.50;99.90
32811;DHT22;65470;47.324;8.548;2023-04-01T08:04:21;12.00;99.90
32811;DHT22;65470;47.324;8.548;2023-04-01T08:07:07;12.10;99.90
32811;DHT22;65470;47.324;8.548;2023-04-01T08:15:21;12.00;99.90
32811;DHT22;65470;47.324;8.548;2023-04-01T08:25:39;11.90;99.90
32811;DHT22;65470;47.324;8.548;2023-04-01T08:28:14;11.90;99.90
32811;DHT22;65470;47.324;8.548;2023-04-01T08:35:55;11.50;99.90
32811;DHT22;65470;47.324;8.548;2023-04-01T08:38:29;11.40;99.90
32811;DHT22;65470;47.324;8.548;2023-04-01T08:40:59;11.40;99.90
32811;DHT22;65470;47.324;8.548;2023-04-01T08:43:47;11.40;99.90
32811;DHT22;65470;47.324;8.548;2023-04-01T08:46:56;11.20;99.90
32811;DHT22;65470;47.324;8.548;2023-04-01T08:52:35;11.30;99.90
32811;DHT22;65470;47.324;8.548;2023-04-01T08:55:10;11.40;99.90
32811;DHT22;65470;47.324;8.548;2023-04-01T09:09:15;11.90;99.90
32811;DHT22;65470;47.324;8.548;2023-04-01T09:22:34;12.10;99.90
32811;DHT22;65470;47.324;8.548;2023-04-01T09:28:14;12.20;99.90
32811;DHT22;65470;47.324;8.548;2023-04-01T09:33:51;11.90;99.90
32811;DHT22;65470;47.324;8.548;2023-04-01T09:42:15;12.50;99.90
32811;DHT22;65470;47.324;8.548;2023-04-01T09:44:48;12.70;99.90
32811;DHT22;65470;47.324;8.548;2023-04-01T09:52:36;12.90;99.90
32811;DHT22;65470;47.324;8.548;2023-04-01T10:04:17;13.20;99.90
32811;DHT22;65470;47.324;8.548;2023-04-01T10:18:41;13.60;98.00
32811;DHT22;65470;47.324;8.548;2023-04-01T10:33:12;13.60;97.10
32811;DHT22;65470;47.324;8.548;2023-04-01T10:45:47;13.20;96.20
32811;DHT22;65470;47.324;8.548;2023-04-01T10:49:02;13.40;97.80
32811;DHT22;65470;47.324;8.548;2023-04-01T10:55:09;13.70;96.50
32811;DHT22;65470;47.324;8.548;2023-04-01T11:11:38;14.30;99.90
32811;DHT22;65470;47.324;8.548;2023-04-01T11:22:57;14.50;96.30
32811;DHT22;65470;47.324;8.548;2023-04-01T11:25:50;14.50;95.60
32811;DHT22;65470;47.324;8.548;2023-04-01T11:31:28;14.10;96.10
32811;DHT22;65470;47.324;8.548;2023-04-01T11:34:02;14.00;96.30
32811;DHT22;65470;47.324;8.548;2023-04-01T11:44:29;13.60;98.20
32811;DHT22;65470;47.324;8.548;2023-04-01T11:47:40;13.80;96.90
32811;DHT22;65470;47.324;8.548;2023-04-01T11:53:13;14.20;97.00
32811;DHT22;65470;47.324;8.548;2023-04-01T12:06:44;14.50;94.90
32811;DHT22;65470;47.324;8.548;2023-04-01T12:09:49;14.70;94.70
32811;DHT22;65470;47.324;8.548;2023-04-01T12:12:22;14.80;94.80
32811;DHT22;65470;47.324;8.548;2023-04-01T12:18:30;16.20;92.10
32811;DHT22;65470;47.324;8.548;2023-04-01T12:29:14;15.80;90.20
32811;DHT22;65470;47.324;8.548;2023-04-01T12:34:34;15.10;93.20
32811;DHT22;65470;47.324;8.548;2023-04-01T12:45:35;16.20;94.20
32811;DHT22;65470;47.324;8.548;2023-04-01T12:54:17;18.00;84.70
32811;DHT22;65470;47.324;8.548;2023-04-01T13:07:45;20.10;72.80
32811;DHT22;65470;47.324;8.548;2023-04-01T13:10:29;20.10;70.00
32811;DHT22;65470;47.324;8.548;2023-04-01T13:15:41;19.40;73.00
32811;DHT22;65470;47.324;8.548;2023-04-01T13:21:34;18.50;72.70
32811;DHT22;65470;47.324;8.548;2023-04-01T13:27:07;18.00;74.40
32811;DHT22;65470;47.324;8.548;2023-04-01T13:32:09;17.30;77.00
32811;DHT22;65470;47.324;8.548;2023-04-01T13:37:36;17.10;75.10
32811;DHT22;65470;47.324;8.548;2023-04-01T13:51:37;16.90;80.70
32811;DHT22;65470;47.324;8.548;2023-04-01T14:00:42;17.60;77.20
32811;DHT22;65470;47.324;8.548;2023-04-01T14:09:38;17.70;76.10
32811;DHT22;65470;47.324;8.548;2023-04-01T14:20:53;17.30;80.50
32811;DHT22;65470;47.324;8.548;2023-04-01T14:23:39;17.10;79.10
32811;DHT22;65470;47.324;8.548;2023-04-01T14:29:11;17.10;79.20
32811;DHT22;65470;47.324;8.548;2023-04-01T14:34:50;16.40;81.20
32811;DHT22;65470;47.324;8.548;2023-04-01T14:40:27;15.40;87.00
32811;DHT22;65470;47.324;8.548;2023-04-01T14:48:32;13.70;91.40
32811;DHT22;65470;47.324;8.548;2023-04-01T14:53:44;13.70;95.50
32811;DHT22;65470;47.324;8.548;2023-04-01T14:59:14;13.90;96.40
32811;DHT22;65470;47.324;8.548;2023-04-01T15:12:34;14.00;99.90
32811;DHT22;65470;47.324;8.548;2023-04-01T15:15:21;14.10;99.80
32811;DHT22;65470;47.324;8.548;2023-04-01T15:18:08;14.00;99.90
32811;DHT22;65470;47.324;8.548;2023-04-01T15:20:51;13.80;99.90
32811;DHT22;65470;47.324;8.548;2023-04-01T15:23:25;13.70;99.90
32811;DHT22;65470;47.324;8.548;2023-04-01T15:26:22;13.60;99.90
32811;DHT22;65470;47.324;8.548;2023-04-01T15:32:02;13.50;99.90
32811;DHT22;65470;47.324;8.548;2023-04-01T15:37:37;13.60;99.90
32811;DHT22;65470;47.324;8.548;2023-04-01T15:51:31;13.60;99.90
32811;DHT22;65470;47.324;8.548;2023-04-01T16:01:59;13.90;99.90
32811;DHT22;65470;47.324;8.548;2023-04-01T16:07:46;14.00;99.90
32811;DHT22;65470;47.324;8.548;2023-04-01T16:18:38;14.10;99.90
32811;DHT22;65470;47.324;8.548;2023-04-01T16:27:36;14.10;99.90
32811;DHT22;65470;47.324;8.548;2023-04-01T16:37:59;13.70;99.90
32811;DHT22;65470;47.324;8.548;2023-04-01T16:40:42;13.30;99.90
32811;DHT22;65470;47.324;8.548;2023-04-01T16:43:21;12.80;99.90
32811;DHT22;65470;47.324;8.548;2023-04-01T16:49:16;12.20;99.90
32811;DHT22;65470;47.324;8.548;2023-04-01T16:54:35;12.20;99.90
32811;DHT22;65470;47.324;8.548;2023-04-01T16:57:21;12.00;99.90
32811;DHT22;65470;47.324;8.548;2023-04-01T17:02:36;12.00;99.90
32811;DHT22;65470;47.324;8.548;2023-04-01T17:05:11;12.00;99.90
32811;DHT22;65470;47.324;8.548;2023-04-01T17:07:55;12.10;99.90
32811;DHT22;65470;47.324;8.548;2023-04-01T17:13:23;11.90;99.90
32811;DHT22;65470;47.324;8.548;2023-04-01T17:16:15;11.90;99.90
32811;DHT22;65470;47.324;8.548;2023-04-01T17:18:50;11.80;99.90
32811;DHT22;65470;47.324;8.548;2023-04-01T17:21:55;11.90;99.90
32811;DHT22;65470;47.324;8.548;2023-04-01T17:30:03;11.70;99.90
32811;DHT22;65470;47.324;8.548;2023-04-01T17:41:10;11.50;99.90
32811;DHT22;65470;47.324;8.548;2023-04-01T17:44:01;11.50;99.90
32811;DHT22;65470;47.324;8.548;2023-04-01T17:46:33;11.50;99.90
32811;DHT22;65470;47.324;8.548;2023-04-01T17:49:23;11.40;99.90
32811;DHT22;65470;47.324;8.548;2023-04-01T17:54:41;11.40;99.90
32811;DHT22;65470;47.324;8.548;2023-04-01T18:11:33;11.10;99.90
32811;DHT22;65470;47.324;8.548;2023-04-01T18:20:24;10.90;99.90
32811;DHT22;65470;47.324;8.548;2023-04-01T18:23:03;10.90;99.90
32811;DHT22;65470;47.324;8.548;2023-04-01T18:25:38;10.90;99.90
32811;DHT22;65470;47.324;8.548;2023-04-01T18:31:15;10.90;99.90
32811;DHT22;65470;47.324;8.548;2023-04-01T18:33:56;10.90;99.90
32811;DHT22;65470;47.324;8.548;2023-04-01T18:39:17;10.90;99.90
32811;DHT22;65470;47.324;8.548;2023-04-01T18:41:51;10.90;99.90
32811;DHT22;65470;47.324;8.548;2023-04-01T18:44:47;10.90;99.90
32811;DHT22;65470;47.324;8.548;2023-04-01T18:47:43;10.90;99.90
32811;DHT22;65470;47.324;8.548;2023-04-01T18:50:36;10.90;99.90
32811;DHT22;65470;47.324;8.548;2023-04-01T18:55:54;11.00;99.90
32811;DHT22;65470;47.324;8.548;2023-04-01T18:58:23;10.90;99.90
32811;DHT22;65470;47.324;8.548;2023-04-01T19:04:23;11.00;99.90
32811;DHT22;65470;47.324;8.548;2023-04-01T19:06:55;11.00;99.90
32811;DHT22;65470;47.324;8.548;2023-04-01T19:20:38;10.90;99.90
32811;DHT22;65470;47.324;8.548;2023-04-01T19:26:05;10.90;99.90
32811;DHT22;65470;47.324;8.548;2023-04-01T19:35:13;10.70;99.90
32811;DHT22;65470;47.324;8.548;2023-04-01T19:38:03;10.80;99.90
32811;DHT22;65470;47.324;8.548;2023-04-01T19:40:53;10.80;99.90
32811;DHT22;65470;47.324;8.548;2023-04-01T19:46:42;10.90;99.90
32811;DHT22;65470;47.324;8.548;2023-04-01T19:52:35;10.90;99.90
32811;DHT22;65470;47.324;8.548;2023-04-01T20:00:43;11.00;99.90
32811;DHT22;65470;47.324;8.548;2023-04-01T20:07:04;10.90;99.90
32811;DHT22;65470;47.324;8.548;2023-04-01T20:14:52;10.80;99.90
32811;DHT22;65470;47.324;8.548;2023-04-01T20:17:41;10.90;99.90
32811;DHT22;65470;47.324;8.548;2023-04-01T20:26:01;10.70;99.90
32811;DHT22;65470;47.324;8.548;2023-04-01T20:28:47;10.60;99.90
32811;DHT22;65470;47.324;8.548;2023-04-01T20:31:24;10.50;99.90
32811;DHT22;65470;47.324;8.548;2023-04-01T20:34:21;10.40;99.90
32811;DHT22;65470;47.324;8.548;2023-04-01T20:39:59;10.50;99.90
32811;DHT22;65470;47.324;8.548;2023-04-01T20:43:14;10.50;99.90
32811;DHT22;65470;47.324;8.548;2023-04-01T20:48:22;10.50;99.90
32811;DHT22;65470;47.324;8.548;2023-04-01T20:53:43;10.50;99.90
32811;DHT22;65470;47.324;8.548;2023-04-01T21:01:37;10.60;99.90
32811;DHT22;65470;47.324;8.548;2023-04-01T21:10:16;10.80;99.90
32811;DHT22;65470;47.324;8.548;2023-04-01T21:13:12;10.80;99.90
32811;DHT22;65470;47.324;8.548;2023-04-01T21:15:43;10.80;99.90
32811;DHT22;65470;47.324;8.548;2023-04-01T21:18:39;10.70;99.90
32811;DHT22;65470;47.324;8.548;2023-04-01T21:35:07;10.50;99.90
32811;DHT22;65470;47.324;8.548;2023-04-01T21:40:53;10.40;99.90
32811;DHT22;65470;47.324;8.548;2023-04-01T21:52:29;10.30;99.90
32811;DHT22;65470;47.324;8.548;2023-04-01T21:58:06;10.30;99.90
32811;DHT22;65470;47.324;8.548;2023-04-01T22:03:51;10.30;99.90
32811;DHT22;65470;47.324;8.548;2023-04-01T22:06:33;10.30;99.90
32811;DHT22;65470;47.324;8.548;2023-04-01T22:09:21;10.30;99.90
32811;DHT22;65470;47.324;8.548;2023-04-01T22:12:04;10.30;99.90
32811;DHT22;65470;47.324;8.548;2023-04-01T22:14:47;10.30;99.90
32811;DHT22;65470;47.324;8.548;2023-04-01T22:20:04;10.30;99.90
32811;DHT22;65470;47.324;8.548;2023-04-01T22:25:41;10.30;99.90
32811;DHT22;65470;47.324;8.548;2023-04-01T22:28:24;10.20;99.90
32811;DHT22;65470;47.324;8.548;2023-04-01T22:30:58;10.20;99.90
32811;DHT22;65470;47.324;8.548;2023-04-01T22:33:32;10.20;99.90
32811;DHT22;65470;47.324;8.548;2023-04-01T22:43:49;10.10;99.90
32811;DHT22;65470;47.324;8.548;2023-04-01T22:49:26;10.20;99.90
32811;DHT22;65470;47.324;8.548;2023-04-01T22:52:25;10.10;99.90
32811;DHT22;65470;47.324;8.548;2023-04-01T22:55:01;10.10;99.90
32811;DHT22;65470;47.324;8.548;2023-04-01T22:57:47;10.10;99.90
32811;DHT22;65470;47.324;8.548;2023-04-01T23:00:22;10.20;99.90
32811;DHT22;65470;47.324;8.548;2023-04-01T23:05:41;10.20;99.90
32811;DHT22;65470;47.324;8.548;2023-04-01T23:08:40;10.20;99.90
32811;DHT22;65470;47.324;8.548;2023-04-01T23:11:18;10.20;99.90
32811;DHT22;65470;47.324;8.548;2023-04-01T23:13:49;10.20;99.90
32811;DHT22;65470;47.324;8.548;2023-04-01T23:16:20;10.20;99.90
32811;DHT22;65470;47.324;8.548;2023-04-01T23:18:59;10.20;99.90
32811;DHT22;65470;47.324;8.548;2023-04-01T23:21:40;10.30;99.90
32811;DHT22;65470;47.324;8.548;2023-04-01T23:29:35;10.10;99.90
32811;DHT22;65470;47.324;8.548;2023-04-01T23:32:03;10.00;99.90
32811;DHT22;65470;47.324;8.548;2023-04-01T23:34:35;10.00;99.90
32811;DHT22;65470;47.324;8.548;2023-04-01T23:37:11;10.00;99.90
32811;DHT22;65470;47.324;8.548;2023-04-01T23:39:40;10.10;99.90
32811;DHT22;65470;47.324;8.548;2023-04-01T23:42:19;10.10;99.90
32811;DHT22;65470;47.324;8.548;2023-04-01T23:44:47;10.10;99.90
32811;DHT22;65470;47.324;8.548;2023-04-01T23:47:31;10.10;99.90
32811;DHT22;65470;47.324;8.548;2023-04-01T23:50:01;10.00;99.90
32811;DHT22;65470;47.324;8.548;2023-04-01T23:52:34;10.00;99.90
32811;DHT22;65470;47.324;8.548;2023-04-01T23:55:23;10.00;99.90
32811;DHT22;65470;47.324;8.548;2023-04-01T23:58:11;9.90;99.90
